Time;durP1;ratioP1;P1;durP2;ratioP2;P2;SDS_P1;SDS_P2;PMS_P1;PMS_P2;Temp;Humidity;BMP_temperature;BMP_pressure;BME280_temperature;BME280_humidity;BME280_pressure;Samples;Min_cycle;Max_cycle;Signal;HPM_P1;HPM_P2
2021/01/14 00:00:40;;;;;;;19.23;11.00;;;5.40;96.40;;;;;;5073909;28;20553;-75
2021/01/14 00:03:08;;;;;;;17.50;11.37;;;5.40;96.30;;;;;;5073913;28;20441;-75
2021/01/14 00:05:34;;;;;;;21.80;13.07;;;5.40;96.10;;;;;;5073932;28;20459;-75
2021/01/14 00:08:01;;;;;;;17.73;9.10;;;5.40;95.90;;;;;;5073938;28;20790;-75
2021/01/14 00:10:27;;;;;;;19.00;12.30;;;5.40;95.70;;;;;;5073585;28;20476;-75
2021/01/14 00:12:54;;;;;;;16.90;9.50;;;5.40;95.50;;;;;;5073794;28;20793;-75
2021/01/14 00:15:21;;;;;;;17.20;9.80;;;5.40;95.60;;;;;;5073743;28;20445;-75
2021/01/14 00:17:47;;;;;;;16.27;8.40;;;5.40;95.50;;;;;;5073788;28;20444;-75
2021/01/14 00:20:16;;;;;;;20.37;8.60;;;5.40;95.50;;;;;;5073281;28;20941;-75
2021/01/14 00:22:42;;;;;;;22.40;13.63;;;5.40;95.40;;;;;;5073730;28;20441;-75
2021/01/14 00:25:10;;;;;;;15.83;9.90;;;5.50;95.40;;;;;;5073638;28;20474;-75
2021/01/14 00:27:37;;;;;;;18.47;11.83;;;5.40;95.30;;;;;;5073392;28;20919;-75
2021/01/14 00:30:09;;;;;;;24.70;18.83;;;5.40;95.20;;;;;;5073593;28;20498;-75
2021/01/14 00:32:36;;;;;;;19.80;14.90;;;5.40;95.20;;;;;;5073665;28;20425;-75
2021/01/14 00:35:03;;;;;;;25.00;16.37;;;5.40;94.60;;;;;;5073553;28;20452;-75
2021/01/14 00:40:14;;;;;;;20.03;10.87;;;5.40;94.40;;;;;;5073567;28;20432;-75
2021/01/14 00:42:40;;;;;;;20.47;11.07;;;5.40;94.20;;;;;;5073199;28;20432;-75
2021/01/14 00:45:09;;;;;;;14.00;7.00;;;5.40;94.00;;;;;;5073449;28;20847;-75
2021/01/14 00:47:36;;;;;;;11.27;6.23;;;5.40;94.00;;;;;;5073390;28;20449;-75
2021/01/14 00:50:03;;;;;;;13.60;5.70;;;5.40;93.80;;;;;;5073638;28;20440;-75
2021/01/14 00:52:30;;;;;;;15.23;5.37;;;5.50;93.70;;;;;;5073058;28;20954;-75
2021/01/14 00:54:56;;;;;;;7.83;5.43;;;5.50;93.70;;;;;;5073501;28;20449;-75
2021/01/14 00:57:22;;;;;;;9.00;5.77;;;5.50;93.70;;;;;;5073303;28;20444;-75
2021/01/14 00:59:48;;;;;;;15.37;6.27;;;5.50;93.60;;;;;;5073250;28;20445;-75
2021/01/14 01:02:15;;;;;;;11.87;4.30;;;5.50;93.70;;;;;;5073065;28;20492;-75
2021/01/14 01:04:41;;;;;;;13.70;4.97;;;5.50;93.70;;;;;;5073217;28;20452;-75
2021/01/14 01:07:08;;;;;;;10.50;5.00;;;5.50;93.80;;;;;;5074569;28;21048;-75
2021/01/14 01:09:34;;;;;;;11.27;4.00;;;5.60;93.90;;;;;;5077158;28;20451;-75
2021/01/14 01:12:00;;;;;;;8.97;3.93;;;5.60;93.80;;;;;;5077030;28;20541;-75
2021/01/14 01:14:26;;;;;;;8.40;3.40;;;5.60;93.40;;;;;;5077096;28;20440;-75
2021/01/14 01:16:54;;;;;;;7.40;2.50;;;5.50;93.30;;;;;;5077052;28;20448;-75
2021/01/14 01:19:21;;;;;;;9.03;2.90;;;5.60;93.10;;;;;;5077438;28;20512;-75
2021/01/14 01:21:47;;;;;;;9.10;3.00;;;5.60;92.90;;;;;;5076876;28;20537;-75
2021/01/14 01:24:13;;;;;;;5.57;2.67;;;5.60;92.80;;;;;;5076968;28;20506;-75
2021/01/14 01:26:40;;;;;;;9.50;2.30;;;5.60;92.20;;;;;;5076966;28;20440;-75
2021/01/14 01:29:06;;;;;;;8.93;2.07;;;5.60;91.70;;;;;;5076876;28;20451;-75
2021/01/14 01:31:37;;;;;;;7.10;2.00;;;5.60;91.60;;;;;;5076793;28;20465;-75
2021/01/14 01:34:03;;;;;;;7.03;2.60;;;5.50;91.40;;;;;;5076816;28;20425;-75
2021/01/14 01:36:30;;;;;;;9.60;1.93;;;5.60;91.20;;;;;;5076737;28;20452;-75
2021/01/14 01:38:56;;;;;;;6.70;2.07;;;5.50;91.10;;;;;;5076373;28;20960;-75
2021/01/14 01:41:23;;;;;;;12.73;2.70;;;5.50;91.10;;;;;;5076324;28;20491;-75
2021/01/14 01:43:50;;;;;;;4.67;1.60;;;5.50;91.00;;;;;;5076532;28;20814;-75
2021/01/14 01:46:24;;;;;;;7.53;2.13;;;5.50;90.80;;;;;;5076164;28;20850;-75
2021/01/14 01:48:50;;;;;;;10.03;2.27;;;5.50;90.50;;;;;;5076468;28;20428;-75
2021/01/14 01:51:17;;;;;;;7.80;1.83;;;5.50;90.40;;;;;;5076347;28;20823;-75
2021/01/14 01:53:44;;;;;;;5.40;1.97;;;5.50;90.20;;;;;;5076447;28;20470;-75
2021/01/14 01:56:11;;;;;;;6.67;2.50;;;5.40;90.10;;;;;;5076348;28;20443;-75
2021/01/14 01:58:40;;;;;;;9.37;1.87;;;5.40;90.10;;;;;;5076585;28;20448;-75
2021/01/14 02:01:07;;;;;;;7.17;2.43;;;5.40;90.10;;;;;;5076121;28;20480;-75
2021/01/14 02:03:34;;;;;;;6.60;1.97;;;5.40;89.80;;;;;;5076271;28;20469;-75
2021/01/14 02:06:01;;;;;;;5.30;1.67;;;5.40;89.80;;;;;;5076206;28;20445;-75
2021/01/14 02:08:39;;;;;;;3.97;1.90;;;5.40;89.00;;;;;;5076425;28;20535;-75
2021/01/14 02:11:10;;;;;;;4.77;1.20;;;5.40;89.80;;;;;;5075885;28;20511;-75
2021/01/14 02:13:43;;;;;;;7.20;1.23;;;5.30;88.20;;;;;;5076165;28;20467;-75
2021/01/14 02:16:12;;;;;;;8.47;2.00;;;5.30;88.10;;;;;;5075764;28;20437;-75
2021/01/14 02:18:40;;;;;;;5.07;1.70;;;5.30;88.10;;;;;;5075747;28;20502;-75
2021/01/14 02:21:10;;;;;;;4.63;1.23;;;5.30;88.10;;;;;;5075506;28;20989;-75
2021/01/14 02:23:45;;;;;;;10.40;1.90;;;5.30;88.10;;;;;;5075896;28;20441;-75
2021/01/14 02:26:15;;;;;;;5.67;2.27;;;5.30;88.30;;;;;;5075902;28;20428;-75
2021/01/14 02:28:44;;;;;;;5.73;1.30;;;5.30;88.30;;;;;;5075931;28;20433;-75
2021/01/14 02:31:10;;;;;;;4.60;1.47;;;5.30;88.20;;;;;;5075693;28;20465;-75
2021/01/14 02:33:37;;;;;;;6.43;1.70;;;5.30;88.20;;;;;;5075392;28;20444;-75
2021/01/14 02:36:04;;;;;;;8.70;1.60;;;5.30;88.50;;;;;;5075703;28;20437;-75
2021/01/14 02:38:30;;;;;;;7.77;1.67;;;5.30;88.10;;;;;;5075638;28;20546;-75
2021/01/14 02:40:57;;;;;;;3.53;1.23;;;5.30;88.00;;;;;;5075435;28;20487;-75
2021/01/14 02:43:24;;;;;;;9.50;2.20;;;5.30;87.70;;;;;;5075493;28;20452;-75
2021/01/14 02:45:50;;;;;;;10.03;1.40;;;5.20;87.40;;;;;;5075515;28;20453;-75
2021/01/14 02:48:20;;;;;;;3.60;1.43;;;5.20;87.30;;;;;;5075456;28;20448;-75
2021/01/14 02:50:51;;;;;;;5.00;1.93;;;5.20;86.90;;;;;;5076155;28;20543;-75
2021/01/14 02:53:19;;;;;;;4.53;1.50;;;5.20;86.30;;;;;;5075612;28;20429;-75
2021/01/14 02:55:46;;;;;;;7.33;2.60;;;5.20;86.40;;;;;;5075288;28;20448;-75
2021/01/14 02:58:12;;;;;;;3.70;1.50;;;5.20;86.60;;;;;;5075241;28;20457;-75
2021/01/14 03:00:40;;;;;;;3.23;1.53;;;5.20;86.70;;;;;;5075636;28;20480;-75
2021/01/14 03:03:06;;;;;;;7.83;1.97;;;5.10;86.60;;;;;;5075136;28;20448;-75
2021/01/14 03:05:32;;;;;;;6.00;2.30;;;5.10;86.70;;;;;;5075073;28;20451;-75
2021/01/14 03:07:58;;;;;;;9.40;1.80;;;5.20;86.80;;;;;;5074788;28;20459;-75
2021/01/14 03:10:24;;;;;;;9.00;1.63;;;5.20;86.80;;;;;;5074743;28;20491;-75
2021/01/14 03:12:50;;;;;;;5.57;2.00;;;5.20;86.90;;;;;;5074956;28;20456;-75
2021/01/14 03:15:17;;;;;;;2.90;1.80;;;5.20;87.00;;;;;;5074891;28;20440;-75
2021/01/14 03:17:44;;;;;;;5.50;1.53;;;5.10;87.00;;;;;;5074548;28;20938;-75
2021/01/14 03:20:11;;;;;;;5.17;1.47;;;5.20;86.90;;;;;;5074733;28;20447;-75
2021/01/14 03:22:38;;;;;;;5.30;1.53;;;5.10;86.50;;;;;;5074955;28;20468;-75
2021/01/14 03:25:07;;;;;;;8.10;1.33;;;5.10;86.30;;;;;;5074708;28;20479;-75
2021/01/14 03:27:37;;;;;;;5.57;2.10;;;5.10;86.40;;;;;;5074657;28;20787;-75
2021/01/14 03:30:05;;;;;;;7.30;1.60;;;5.10;86.50;;;;;;5073966;28;20480;-75
2021/01/14 03:32:31;;;;;;;4.53;1.77;;;5.10;86.70;;;;;;5074462;28;20472;-75
2021/01/14 03:34:58;;;;;;;6.50;1.47;;;5.10;86.60;;;;;;5074219;28;20938;-75
2021/01/14 03:37:24;;;;;;;8.23;1.60;;;5.10;86.40;;;;;;5074437;28;20441;-75
2021/01/14 03:39:50;;;;;;;2.63;1.00;;;5.10;86.30;;;;;;5074135;28;20933;-75
2021/01/14 03:42:19;;;;;;;4.93;1.30;;;5.00;86.10;;;;;;5074261;28;20480;-75
2021/01/14 03:44:45;;;;;;;6.20;1.30;;;5.00;86.30;;;;;;5074267;28;20445;-75
2021/01/14 03:47:11;;;;;;;4.00;1.43;;;5.00;86.70;;;;;;5074262;28;20444;-75
2021/01/14 03:49:37;;;;;;;8.73;2.13;;;5.00;86.80;;;;;;5074125;28;20440;-75
2021/01/14 03:52:04;;;;;;;8.87;1.53;;;5.00;86.70;;;;;;5073759;28;20457;-75
2021/01/14 03:54:30;;;;;;;2.30;1.07;;;5.00;86.20;;;;;;5074065;28;20440;-75
2021/01/14 03:56:57;;;;;;;6.37;1.50;;;5.00;86.10;;;;;;5074002;28;20868;-75
2021/01/14 03:59:23;;;;;;;5.03;1.50;;;4.90;86.10;;;;;;5074327;28;20429;-75
2021/01/14 04:01:49;;;;;;;8.80;1.90;;;4.90;86.20;;;;;;5073879;28;20499;-75
2021/01/14 04:04:15;;;;;;;5.77;2.00;;;4.90;86.00;;;;;;5073652;28;20444;-75
2021/01/14 04:06:41;;;;;;;4.53;1.63;;;4.90;86.10;;;;;;5074167;28;20441;-74
2021/01/14 04:09:09;;;;;;;6.80;1.83;;;4.90;86.10;;;;;;5073572;28;20938;-75
2021/01/14 04:11:35;;;;;;;7.10;1.87;;;4.90;86.00;;;;;;5073736;28;20473;-75
2021/01/14 04:14:01;;;;;;;3.67;1.80;;;4.90;86.10;;;;;;5073840;28;20453;-75
2021/01/14 04:16:27;;;;;;;3.40;1.30;;;4.90;85.50;;;;;;5073766;28;20448;-75
2021/01/14 04:18:54;;;;;;;9.20;1.90;;;4.90;85.30;;;;;;5073468;28;20444;-75
2021/01/14 04:21:20;;;;;;;6.07;1.33;;;4.90;85.50;;;;;;5073591;28;20480;-75
2021/01/14 04:23:46;;;;;;;6.20;2.30;;;4.90;85.60;;;;;;5073398;28;20956;-75
2021/01/14 04:26:13;;;;;;;7.63;1.67;;;4.90;85.60;;;;;;5073678;28;20452;-75
2021/01/14 04:28:40;;;;;;;9.93;1.27;;;4.90;85.70;;;;;;5073657;28;20441;-75
2021/01/14 04:31:07;;;;;;;4.63;1.53;;;4.90;85.60;;;;;;5073528;28;20460;-75
2021/01/14 04:33:33;;;;;;;12.20;1.27;;;4.90;85.60;;;;;;5073564;28;20444;-75
2021/01/14 04:36:01;;;;;;;6.73;1.73;;;4.90;85.60;;;;;;5073537;28;20449;-75
2021/01/14 04:38:29;;;;;;;4.70;1.90;;;4.90;85.40;;;;;;5073552;28;20449;-75
2021/01/14 04:40:57;;;;;;;5.80;1.57;;;4.90;85.40;;;;;;5073357;28;20484;-75
2021/01/14 04:43:25;;;;;;;4.87;1.90;;;4.90;85.10;;;;;;5073178;28;20962;-75
2021/01/14 04:45:55;;;;;;;8.50;2.37;;;4.90;85.10;;;;;;5073430;28;20452;-75
2021/01/14 04:48:22;;;;;;;8.77;1.60;;;4.90;84.90;;;;;;5074242;28;20440;-75
2021/01/14 04:50:50;;;;;;;4.63;1.63;;;4.90;84.70;;;;;;5073020;28;20978;-75
2021/01/14 04:53:20;;;;;;;4.43;1.10;;;4.90;84.90;;;;;;5073383;28;20464;-75
2021/01/14 04:55:47;;;;;;;4.00;1.20;;;4.90;85.20;;;;;;5073114;28;20460;-75
2021/01/14 04:58:18;;;;;;;3.97;1.03;;;4.90;85.00;;;;;;5073018;28;20972;-75
2021/01/14 05:00:50;;;;;;;4.73;0.73;;;4.90;84.90;;;;;;5073159;28;20472;-75
2021/01/14 05:03:21;;;;;;;10.70;2.10;;;4.90;85.00;;;;;;5073277;28;20456;-75
2021/01/14 05:05:48;;;;;;;7.80;1.40;;;4.90;85.30;;;;;;5073254;28;20429;-75
2021/01/14 05:08:15;;;;;;;5.40;1.60;;;4.90;85.40;;;;;;5073282;28;20460;-75
2021/01/14 05:10:44;;;;;;;7.57;1.53;;;4.90;85.40;;;;;;5072939;28;20479;-75
2021/01/14 05:13:11;;;;;;;8.40;1.17;;;4.90;85.80;;;;;;5073096;28;20825;-75
2021/01/14 05:15:39;;;;;;;7.10;2.90;;;4.90;86.00;;;;;;5073141;28;20441;-75
2021/01/14 05:18:06;;;;;;;2.43;1.20;;;4.90;86.10;;;;;;5073386;28;20469;-75
2021/01/14 05:20:33;;;;;;;5.77;1.70;;;4.80;86.10;;;;;;5072945;28;20827;-75
2021/01/14 05:23:00;;;;;;;7.80;1.80;;;4.90;86.10;;;;;;5073057;28;20441;-75
2021/01/14 05:25:27;;;;;;;3.70;1.23;;;4.80;86.20;;;;;;5073101;28;20429;-75
2021/01/14 05:27:53;;;;;;;4.10;1.30;;;4.80;86.40;;;;;;5073019;28;20451;-75
2021/01/14 05:30:22;;;;;;;2.73;1.30;;;4.80;86.50;;;;;;5072638;28;20440;-75
2021/01/14 05:32:49;;;;;;;5.00;1.23;;;4.80;86.60;;;;;;5072989;28;20440;-75
2021/01/14 05:35:26;;;;;;;4.50;1.53;;;4.80;86.60;;;;;;5072942;28;20456;-75
2021/01/14 05:38:00;;;;;;;3.30;1.50;;;4.80;86.70;;;;;;5073056;28;20515;-75
2021/01/14 05:40:28;;;;;;;6.57;1.50;;;4.80;87.40;;;;;;5072923;28;20486;-74
2021/01/14 05:43:02;;;;;;;5.57;1.23;;;4.80;86.80;;;;;;5072787;28;20484;-75
2021/01/14 05:45:28;;;;;;;3.67;1.43;;;4.80;86.70;;;;;;5072596;28;20891;-75
2021/01/14 05:48:07;;;;;;;4.97;1.50;;;4.80;86.80;;;;;;5072965;28;20519;-75
2021/01/14 05:50:43;;;;;;;10.13;1.33;;;4.80;87.00;;;;;;5072757;28;20472;-75
2021/01/14 05:53:13;;;;;;;3.30;1.20;;;4.80;87.20;;;;;;5074419;28;20437;-75
2021/01/14 05:55:42;;;;;;;7.97;1.50;;;4.80;87.10;;;;;;5076418;28;20524;-75
2021/01/14 05:58:12;;;;;;;5.10;1.63;;;4.70;86.80;;;;;;5076448;28;20536;-74
2021/01/14 06:00:42;;;;;;;8.33;1.10;;;4.70;86.70;;;;;;5075892;28;20989;-74
2021/01/14 06:03:26;;;;;;;5.57;1.63;;;4.70;86.60;;;;;;5076376;28;20433;-75
2021/01/14 06:05:53;;;;;;;5.10;1.40;;;4.70;86.90;;;;;;5076520;28;20506;-74
2021/01/14 06:08:24;;;;;;;10.20;1.50;;;4.70;86.90;;;;;;5076280;28;20425;-75
2021/01/14 06:10:51;;;;;;;5.67;2.00;;;4.70;86.80;;;;;;5075868;28;20468;-75
2021/01/14 06:13:17;;;;;;;3.03;1.27;;;4.70;86.60;;;;;;5076170;28;20448;-75
2021/01/14 06:15:43;;;;;;;5.10;1.23;;;4.70;86.60;;;;;;5076017;28;20445;-74
2021/01/14 06:18:11;;;;;;;6.47;1.73;;;4.70;86.80;;;;;;5075992;28;20445;-74
2021/01/14 06:20:51;;;;;;;4.87;1.43;;;4.70;86.90;;;;;;5075765;28;20973;-74
2021/01/14 06:23:19;;;;;;;11.20;1.67;;;4.60;87.00;;;;;;5076184;28;20902;-74
2021/01/14 06:25:49;;;;;;;4.73;1.40;;;4.60;86.90;;;;;;5075900;28;20535;-74
2021/01/14 06:28:18;;;;;;;9.87;2.03;;;4.60;86.90;;;;;;5075863;28;20445;-75
2021/01/14 06:30:58;;;;;;;5.63;1.40;;;4.60;86.80;;;;;;5075698;28;20952;-75
2021/01/14 06:33:26;;;;;;;2.60;1.00;;;4.60;86.80;;;;;;5075867;28;20471;-74
2021/01/14 06:36:03;;;;;;;5.37;1.50;;;4.60;87.60;;;;;;5075421;28;20536;-74
2021/01/14 06:38:41;;;;;;;4.10;1.30;;;4.60;87.00;;;;;;5075723;28;20464;-74
2021/01/14 06:41:14;;;;;;;4.70;1.43;;;4.60;87.20;;;;;;5075932;28;20546;-75
2021/01/14 06:43:42;;;;;;;4.20;1.10;;;4.60;87.60;;;;;;5075275;28;20797;-74
2021/01/14 06:46:15;;;;;;;6.47;1.63;;;4.60;87.70;;;;;;5075489;28;20472;-75
2021/01/14 06:48:48;;;;;;;12.57;1.70;;;4.60;87.60;;;;;;5075517;28;20461;-75
2021/01/14 06:51:23;;;;;;;6.80;1.50;;;4.60;87.50;;;;;;5075387;28;20457;-75
2021/01/14 06:53:56;;;;;;;5.93;1.90;;;4.60;87.50;;;;;;5075413;28;20494;-75
2021/01/14 06:56:24;;;;;;;3.60;1.87;;;4.60;87.40;;;;;;5075491;28;20429;-75
2021/01/14 06:58:52;;;;;;;3.63;1.60;;;4.60;87.50;;;;;;5075272;28;20551;-75
2021/01/14 07:01:19;;;;;;;3.20;1.30;;;4.50;87.60;;;;;;5075038;28;20476;-74
2021/01/14 07:03:57;;;;;;;3.63;1.43;;;4.50;87.70;;;;;;5074616;28;20483;-75
2021/01/14 07:06:26;;;;;;;6.10;1.70;;;4.50;87.80;;;;;;5074938;28;20994;-74
2021/01/14 07:09:03;;;;;;;6.93;1.53;;;4.50;87.90;;;;;;5075061;28;20452;-75
2021/01/14 07:11:41;;;;;;;8.93;1.70;;;4.50;88.10;;;;;;5074698;28;20476;-74
2021/01/14 07:14:13;;;;;;;4.30;1.70;;;4.50;88.30;;;;;;5074983;28;20447;-74
2021/01/14 07:16:42;;;;;;;13.83;2.00;;;4.50;88.40;;;;;;5074953;28;20516;-74
2021/01/14 07:19:09;;;;;;;4.50;1.70;;;4.50;88.60;;;;;;5074582;28;20898;-74
2021/01/14 07:21:37;;;;;;;3.53;1.73;;;4.50;88.50;;;;;;5074645;28;20487;-75
2021/01/14 07:24:18;;;;;;;9.57;2.37;;;4.50;88.60;;;;;;5075021;28;20447;-74
2021/01/14 07:26:44;;;;;;;5.67;1.40;;;4.50;88.70;;;;;;5074721;28;20432;-74
2021/01/14 07:29:12;;;;;;;7.20;1.57;;;4.50;88.70;;;;;;5074621;28;20449;-74
2021/01/14 07:31:47;;;;;;;3.93;2.77;;;4.50;88.50;;;;;;5074502;28;20468;-74
2021/01/14 07:34:34;;;;;;;7.53;2.00;;;4.50;88.30;;;;;;5074611;28;20508;-74
2021/01/14 07:37:01;;;;;;;7.10;2.00;;;4.50;88.40;;;;;;5074529;28;20483;-75
2021/01/14 07:39:47;;;;;;;4.17;1.60;;;4.50;88.60;;;;;;5074705;28;20452;-75
2021/01/14 07:42:21;;;;;;;11.40;2.97;;;4.50;88.60;;;;;;5074206;28;20480;-75
2021/01/14 07:44:52;;;;;;;11.83;2.27;;;4.50;88.70;;;;;;5074392;28;20513;-75
2021/01/14 07:47:29;;;;;;;18.73;2.60;;;4.50;88.70;;;;;;5074332;28;20444;-75
2021/01/14 07:49:56;;;;;;;16.00;2.90;;;4.50;88.60;;;;;;5074273;28;20456;-75
2021/01/14 07:52:30;;;;;;;19.87;3.70;;;4.50;88.60;;;;;;5073841;28;20816;-75
2021/01/14 07:55:02;;;;;;;9.30;2.07;;;4.50;88.70;;;;;;5074171;28;20452;-74
2021/01/14 07:57:30;;;;;;;12.70;2.73;;;4.50;88.90;;;;;;5073789;28;20501;-74
2021/01/14 08:00:08;;;;;;;19.67;3.20;;;4.50;88.90;;;;;;5074097;28;20871;-74
2021/01/14 08:03:08;;;;;;;13.13;2.10;;;4.50;88.80;;;;;;5074178;28;20480;-74
2021/01/14 08:05:40;;;;;;;9.83;2.80;;;4.50;88.60;;;;;;5074016;28;20445;-74
2021/01/14 08:08:30;;;;;;;6.60;2.17;;;4.50;88.40;;;;;;5073977;28;20433;-75
2021/01/14 08:11:11;;;;;;;5.80;2.40;;;4.50;88.20;;;;;;5073590;28;20475;-74
2021/01/14 08:14:09;;;;;;;6.00;1.70;;;4.50;88.00;;;;;;5074442;28;20528;-74
2021/01/14 08:16:38;;;;;;;7.30;2.30;;;4.50;88.20;;;;;;5073838;28;20444;-75
2021/01/14 08:19:23;;;;;;;6.87;2.50;;;4.50;88.00;;;;;;5073761;28;20445;-75
2021/01/14 08:22:02;;;;;;;11.57;3.47;;;4.50;87.90;;;;;;5073279;28;21043;-75
2021/01/14 08:24:41;;;;;;;5.37;1.90;;;4.50;88.00;;;;;;5073733;28;20526;-75
2021/01/14 08:27:10;;;;;;;6.40;2.90;;;4.60;88.20;;;;;;5073891;28;20449;-75
2021/01/14 08:29:51;;;;;;;5.67;2.63;;;4.60;88.20;;;;;;5073581;28;20965;-75
2021/01/14 08:32:40;;;;;;;6.63;1.93;;;4.60;87.90;;;;;;5073569;28;20460;-74
2021/01/14 08:35:09;;;;;;;7.80;2.27;;;4.70;88.10;;;;;;5068139;28;20452;-75
2021/01/14 08:37:39;;;;;;;8.43;2.43;;;4.70;87.90;;;;;;5073546;28;20448;-75
2021/01/14 08:40:08;;;;;;;5.63;2.90;;;4.70;87.80;;;;;;5073566;28;20437;-75
2021/01/14 08:42:37;;;;;;;10.43;3.27;;;4.70;87.50;;;;;;5073381;28;20481;-75
2021/01/14 08:45:12;;;;;;;4.93;2.23;;;4.70;87.50;;;;;;5073148;28;20452;-75
2021/01/14 08:47:59;;;;;;;11.90;2.87;;;4.80;87.70;;;;;;5073510;28;20428;-75
2021/01/14 08:50:42;;;;;;;8.30;2.17;;;4.80;87.90;;;;;;5073108;28;20984;-75
2021/01/14 08:53:10;;;;;;;5.73;2.20;;;4.80;87.50;;;;;;5073394;28;20421;-75
2021/01/14 08:55:37;;;;;;;5.00;2.27;;;4.90;87.20;;;;;;5073368;28;20445;-75
2021/01/14 08:58:07;;;;;;;8.47;2.80;;;4.90;86.90;;;;;;5072995;28;20942;-75
2021/01/14 09:00:34;;;;;;;4.60;2.33;;;4.90;86.80;;;;;;5073340;28;20974;-75
2021/01/14 09:03:01;;;;;;;6.10;2.90;;;4.90;86.70;;;;;;5073248;28;20537;-75
2021/01/14 09:05:28;;;;;;;8.70;2.20;;;5.00;86.70;;;;;;5073468;28;20490;-75
2021/01/14 09:08:09;;;;;;;4.57;2.10;;;5.00;86.70;;;;;;5073185;28;20498;-75
2021/01/14 09:10:43;;;;;;;5.60;2.03;;;5.10;86.40;;;;;;5073154;28;20563;-75
2021/01/14 09:13:11;;;;;;;8.03;1.90;;;5.10;86.10;;;;;;5073290;28;20433;-75
2021/01/14 09:15:37;;;;;;;5.50;2.37;;;5.10;85.90;;;;;;5073161;28;20494;-75
2021/01/14 09:18:03;;;;;;;7.03;2.13;;;5.20;86.60;;;;;;5073184;28;20432;-75
2021/01/14 09:20:30;;;;;;;5.50;2.83;;;5.30;85.90;;;;;;5073032;28;20498;-75
2021/01/14 09:22:58;;;;;;;5.23;2.57;;;5.30;85.80;;;;;;5073309;28;20463;-75
2021/01/14 09:25:33;;;;;;;7.47;2.40;;;5.40;85.80;;;;;;5073305;28;20453;-75
2021/01/14 09:28:00;;;;;;;5.53;2.10;;;5.40;85.80;;;;;;5074438;28;20860;-75
2021/01/14 09:30:28;;;;;;;6.07;2.60;;;5.50;85.90;;;;;;5076468;28;20860;-75
2021/01/14 09:33:00;;;;;;;4.60;2.53;;;5.50;85.80;;;;;;5076910;28;20807;-75
2021/01/14 09:35:26;;;;;;;5.40;2.60;;;5.50;85.60;;;;;;5076533;28;20968;-75
2021/01/14 09:37:53;;;;;;;8.50;3.10;;;5.50;85.50;;;;;;5076844;28;20498;-75
2021/01/14 09:40:20;;;;;;;4.73;3.20;;;5.60;85.50;;;;;;5076713;28;20490;-75
2021/01/14 09:42:49;;;;;;;10.63;2.80;;;5.60;85.40;;;;;;5076733;28;20468;-75
2021/01/14 09:45:17;;;;;;;5.23;2.17;;;5.60;85.30;;;;;;5076693;28;20506;-75
2021/01/14 09:47:50;;;;;;;6.87;2.77;;;5.60;85.20;;;;;;5076327;28;20999;-75
2021/01/14 09:50:17;;;;;;;9.93;2.70;;;5.60;85.20;;;;;;5076512;28;20428;-75
2021/01/14 09:52:45;;;;;;;9.30;2.77;;;5.60;84.60;;;;;;5076546;28;20433;-75
2021/01/14 09:55:13;;;;;;;9.53;2.80;;;5.60;84.10;;;;;;5076467;28;20447;-75
2021/01/14 09:57:46;;;;;;;10.00;2.60;;;5.60;83.90;;;;;;5076506;28;20529;-75
2021/01/14 10:00:21;;;;;;;6.60;2.80;;;5.70;84.20;;;;;;5076391;28;20519;-74
2021/01/14 10:02:51;;;;;;;6.47;2.57;;;5.70;84.40;;;;;;5076302;28;20464;-75
2021/01/14 10:05:20;;;;;;;15.33;3.80;;;5.70;84.40;;;;;;5076324;28;20429;-75
2021/01/14 10:07:49;;;;;;;5.33;2.70;;;5.80;84.50;;;;;;5076247;28;20452;-75
2021/01/14 10:10:15;;;;;;;7.30;2.13;;;5.80;84.10;;;;;;5075978;28;20622;-75
2021/01/14 10:12:42;;;;;;;13.93;3.57;;;5.90;84.20;;;;;;5075892;28;20417;-75
2021/01/14 10:15:09;;;;;;;7.10;2.70;;;6.00;84.40;;;;;;5075791;28;20930;-75
2021/01/14 10:17:37;;;;;;;9.17;2.73;;;6.00;84.30;;;;;;5075847;28;20490;-75
2021/01/14 10:20:06;;;;;;;10.23;2.87;;;6.00;83.80;;;;;;5076136;28;20459;-75
2021/01/14 10:22:33;;;;;;;9.40;2.43;;;6.10;83.40;;;;;;5075888;28;20840;-75
2021/01/14 10:25:08;;;;;;;10.37;3.17;;;6.10;82.80;;;;;;5075973;28;20456;-75
2021/01/14 10:27:35;;;;;;;4.20;2.50;;;6.20;82.50;;;;;;5075646;28;20471;-75
2021/01/14 10:30:22;;;;;;;7.37;2.70;;;6.30;82.00;;;;;;5075945;28;20533;-75
2021/01/14 10:32:49;;;;;;;3.50;2.20;;;6.40;81.70;;;;;;5075785;28;20440;-75
2021/01/14 10:35:23;;;;;;;5.83;2.17;;;6.40;80.90;;;;;;5075411;28;20449;-75
2021/01/14 10:38:07;;;;;;;9.33;3.07;;;6.40;80.50;;;;;;5075949;28;20428;-75
2021/01/14 10:40:40;;;;;;;7.03;2.67;;;6.50;80.20;;;;;;5075560;28;21023;-75
2021/01/14 10:43:06;;;;;;;6.27;2.73;;;6.60;79.90;;;;;;5075793;28;20555;-75
2021/01/14 10:45:34;;;;;;;6.50;2.70;;;6.60;79.50;;;;;;5075605;28;20833;-75
2021/01/14 10:48:09;;;;;;;4.67;2.20;;;6.60;79.10;;;;;;5075483;28;20451;-75
2021/01/14 10:50:43;;;;;;;7.20;2.70;;;6.60;77.90;;;;;;5075427;28;20472;-75
2021/01/14 10:53:10;;;;;;;6.90;3.00;;;6.60;77.70;;;;;;5075434;28;20431;-75
2021/01/14 10:55:36;;;;;;;8.53;2.87;;;6.60;78.10;;;;;;5075341;28;20510;-75
2021/01/14 10:58:04;;;;;;;4.37;2.63;;;6.70;78.60;;;;;;5075300;28;20445;-75
2021/01/14 11:00:36;;;;;;;9.53;5.03;;;6.70;78.70;;;;;;5075176;28;20506;-75
2021/01/14 11:03:04;;;;;;;7.73;3.30;;;6.80;78.60;;;;;;5075135;28;20483;-75
2021/01/14 11:05:42;;;;;;;5.60;3.13;;;6.80;78.20;;;;;;5074817;28;20444;-75
2021/01/14 11:08:12;;;;;;;5.27;3.67;;;6.80;78.00;;;;;;5075121;28;20432;-75
2021/01/14 11:10:38;;;;;;;13.30;3.50;;;6.80;78.00;;;;;;5074822;28;20571;-75
2021/01/14 11:13:07;;;;;;;5.30;3.07;;;6.80;77.80;;;;;;5074714;28;20922;-75
2021/01/14 11:15:33;;;;;;;3.90;3.20;;;6.90;77.80;;;;;;5074854;28;20973;-75
2021/01/14 11:18:00;;;;;;;6.13;3.00;;;6.90;77.40;;;;;;5074618;28;20429;-75
2021/01/14 11:20:27;;;;;;;7.57;4.10;;;6.80;77.20;;;;;;5075042;28;20424;-75
2021/01/14 11:22:54;;;;;;;12.77;4.40;;;6.90;77.30;;;;;;5075056;28;20468;-75
2021/01/14 11:25:20;;;;;;;7.47;4.10;;;6.90;77.10;;;;;;5074746;28;20436;-75
2021/01/14 11:27:46;;;;;;;5.20;4.50;;;6.90;76.90;;;;;;5074738;28;20459;-75
2021/01/14 11:30:14;;;;;;;4.20;3.80;;;6.90;77.00;;;;;;5074283;28;20447;-75
2021/01/14 11:32:40;;;;;;;7.07;4.77;;;6.90;76.80;;;;;;5074650;28;20425;-75
2021/01/14 11:35:07;;;;;;;10.63;5.73;;;6.90;76.80;;;;;;5074592;28;20472;-75
2021/01/14 11:37:33;;;;;;;10.23;5.97;;;7.00;76.80;;;;;;5074241;28;21003;-75
2021/01/14 11:40:00;;;;;;;7.43;5.73;;;7.00;76.50;;;;;;5074148;28;20436;-75
2021/01/14 11:42:27;;;;;;;8.00;6.17;;;7.00;76.50;;;;;;5074278;28;20484;-75
2021/01/14 11:44:54;;;;;;;5.67;4.93;;;7.00;76.60;;;;;;5074413;28;20482;-75
2021/01/14 11:47:20;;;;;;;5.73;5.13;;;7.00;76.10;;;;;;5074331;28;20447;-75
2021/01/14 11:49:46;;;;;;;7.50;6.80;;;7.10;76.00;;;;;;5074191;28;20455;-75
2021/01/14 11:52:14;;;;;;;6.60;5.70;;;7.10;75.20;;;;;;5073854;28;20467;-75
2021/01/14 11:54:41;;;;;;;8.60;5.97;;;7.10;75.40;;;;;;5073935;28;20433;-75
2021/01/14 11:57:09;;;;;;;9.00;6.07;;;7.20;75.60;;;;;;5073869;28;20479;-75
2021/01/14 11:59:36;;;;;;;7.03;6.13;;;7.20;75.40;;;;;;5074089;28;20436;-74
2021/01/14 12:02:02;;;;;;;10.13;5.83;;;7.30;75.40;;;;;;5073952;28;20567;-75
2021/01/14 12:04:29;;;;;;;12.23;6.03;;;7.30;75.30;;;;;;5074029;28;20859;-75
2021/01/14 12:06:56;;;;;;;8.27;6.07;;;7.40;75.40;;;;;;5073697;28;20880;-75
2021/01/14 12:09:22;;;;;;;7.50;5.30;;;7.50;75.20;;;;;;5073953;28;20425;-75
2021/01/14 12:11:54;;;;;;;8.00;5.50;;;7.50;74.90;;;;;;5073668;28;20988;-75
2021/01/14 12:14:22;;;;;;;6.03;4.80;;;7.60;74.30;;;;;;5073921;28;20429;-75
2021/01/14 12:16:48;;;;;;;14.67;5.43;;;7.60;73.20;;;;;;5073540;28;20427;-75
2021/01/14 12:19:15;;;;;;;8.93;5.93;;;7.70;73.10;;;;;;5073787;28;20455;-75
2021/01/14 12:21:42;;;;;;;6.93;4.97;;;7.70;72.00;;;;;;5073981;28;20560;-75
2021/01/14 12:24:09;;;;;;;6.60;5.27;;;7.80;71.90;;;;;;5073422;28;20813;-75
2021/01/14 12:26:36;;;;;;;8.43;4.93;;;7.80;72.10;;;;;;5073969;28;20425;-75
2021/01/14 12:29:02;;;;;;;8.80;5.17;;;7.90;72.20;;;;;;5074227;28;20433;-75
2021/01/14 12:31:35;;;;;;;11.27;5.23;;;8.00;72.20;;;;;;5073519;28;20472;-75
2021/01/14 12:34:02;;;;;;;5.90;4.70;;;8.00;72.40;;;;;;5073741;28;20457;-75
2021/01/14 12:36:29;;;;;;;7.50;5.40;;;8.00;72.10;;;;;;5073397;28;20436;-75
2021/01/14 12:38:55;;;;;;;4.80;3.97;;;8.00;72.10;;;;;;5073616;28;20799;-75
2021/01/14 12:41:30;;;;;;;7.77;3.57;;;8.00;71.80;;;;;;5073369;28;20464;-75
2021/01/14 12:43:57;;;;;;;5.37;4.50;;;7.90;71.60;;;;;;5073520;28;20907;-75
2021/01/14 12:46:32;;;;;;;9.90;3.93;;;7.90;71.70;;;;;;5073758;28;20429;-75
2021/01/14 12:49:00;;;;;;;5.43;4.17;;;7.80;71.30;;;;;;5073430;28;20429;-75
2021/01/14 12:51:26;;;;;;;4.93;4.43;;;7.70;70.90;;;;;;5073518;28;20511;-75
2021/01/14 12:53:53;;;;;;;6.20;3.90;;;7.70;70.80;;;;;;5073923;28;20461;-75
2021/01/14 12:56:20;;;;;;;8.93;4.17;;;7.60;70.80;;;;;;5072998;28;20540;-75
2021/01/14 12:58:46;;;;;;;4.10;3.70;;;7.60;71.10;;;;;;5073065;28;20811;-75
2021/01/14 13:01:13;;;;;;;5.13;3.50;;;7.60;71.40;;;;;;5073054;28;20966;-75
2021/01/14 13:03:40;;;;;;;7.03;6.23;;;7.60;71.90;;;;;;5075831;28;20476;-75
2021/01/14 13:06:07;;;;;;;8.10;4.23;;;7.50;72.10;;;;;;5077104;28;20440;-75
2021/01/14 13:08:34;;;;;;;5.67;4.30;;;7.50;71.60;;;;;;5077121;28;20571;-75